createdAt,value
2017-07-10T00:00:32.722Z,45.4
2017-07-10T00:01:34.158Z,45.8
2017-07-10T00:02:35.581Z,46.1
2017-07-10T00:03:37.010Z,46.4
2017-07-10T00:04:38.441Z,46.2
2017-07-10T00:05:39.867Z,46.4
2017-07-10T00:06:41.298Z,46.7
2017-07-10T00:07:42.721Z,46.8
2017-07-10T00:08:44.144Z,46.9
2017-07-10T00:09:45.598Z,47.4
2017-07-10T00:10:47.035Z,47.4
2017-07-10T00:11:48.454Z,47.4
2017-07-10T00:12:49.879Z,47.4
2017-07-10T00:13:51.304Z,47.6
2017-07-10T00:14:52.728Z,47.8
2017-07-10T00:15:54.151Z,47.7
2017-07-10T00:16:55.576Z,47.8
2017-07-10T00:17:57.002Z,47.9
2017-07-10T00:18:58.426Z,47.9
2017-07-10T00:19:59.852Z,48.0
2017-07-10T00:21:01.576Z,47.9
2017-07-10T00:22:03.003Z,48.5
2017-07-10T00:23:04.426Z,48.6
2017-07-10T00:24:05.856Z,48.5
2017-07-10T00:25:07.280Z,48.5
2017-07-10T00:26:08.703Z,48.8
2017-07-10T00:27:10.124Z,49.0
2017-07-10T00:28:11.547Z,48.8
2017-07-10T00:29:12.975Z,49.3
2017-07-10T00:30:14.397Z,49.2
2017-07-10T00:31:15.825Z,49.5
2017-07-10T00:32:17.255Z,49.4
2017-07-10T00:33:18.674Z,49.2
2017-07-10T00:34:20.097Z,49.4
2017-07-10T00:35:21.531Z,49.7
2017-07-10T00:36:22.952Z,49.3
2017-07-10T00:37:24.376Z,48.7
2017-07-10T00:38:25.812Z,48.8
2017-07-10T00:39:27.239Z,48.3
2017-07-10T00:40:28.667Z,48.4
2017-07-10T00:41:30.090Z,48.6
2017-07-10T00:42:31.513Z,48.5
2017-07-10T00:43:32.935Z,48.5
2017-07-10T00:44:34.360Z,48.8
2017-07-10T00:45:35.787Z,49.2
2017-07-10T00:46:37.209Z,48.2
2017-07-10T00:47:38.635Z,48.3
2017-07-10T00:48:40.079Z,48.9
2017-07-10T00:49:41.503Z,48.8
2017-07-10T00:50:42.933Z,48.8
2017-07-10T00:51:44.362Z,48.9
2017-07-10T00:52:45.786Z,49.7
2017-07-10T00:53:47.212Z,49.9
2017-07-10T00:54:48.632Z,49.4
2017-07-10T00:55:50.060Z,49.5
2017-07-10T00:56:51.492Z,49.3
2017-07-10T00:57:52.930Z,49.7
2017-07-10T00:58:54.353Z,49.9
2017-07-10T00:59:55.777Z,49.4
2017-07-10T01:00:57.202Z,49.4
2017-07-10T01:01:58.630Z,49.4
2017-07-10T01:03:00.053Z,49.3
2017-07-10T01:04:01.513Z,49.9
2017-07-10T01:05:02.943Z,49.4
2017-07-10T01:06:04.369Z,49.3
2017-07-10T01:07:05.838Z,49.9
2017-07-10T01:08:07.277Z,50.3
2017-07-10T01:09:08.701Z,50.3
2017-07-10T01:10:10.129Z,50.8
2017-07-10T01:11:11.575Z,50.8
2017-07-10T01:12:13.001Z,50.5
2017-07-10T01:13:14.465Z,50.4
2017-07-10T01:14:15.903Z,50.4
2017-07-10T01:15:17.399Z,50.4
2017-07-10T01:16:18.889Z,50.4
2017-07-10T01:17:20.400Z,50.8
2017-07-10T01:18:21.816Z,50.8
2017-07-10T01:19:23.238Z,50.6
2017-07-10T01:20:24.660Z,51.3
2017-07-10T01:21:26.088Z,51.6
2017-07-10T01:22:27.504Z,51.5
2017-07-10T01:23:28.929Z,51.5
2017-07-10T01:24:30.351Z,51.8
2017-07-10T01:26:11.784Z,52.1
2017-07-10T01:27:13.215Z,52.4
2017-07-10T01:28:14.635Z,52.1
2017-07-10T01:29:16.064Z,52.3
2017-07-10T01:30:17.483Z,52.3
2017-07-10T01:31:18.911Z,52.2
2017-07-10T01:32:20.331Z,52.1
2017-07-10T01:33:21.760Z,52.5
2017-07-10T01:34:23.185Z,52.1
2017-07-10T01:35:24.675Z,52.2
2017-07-10T01:36:26.153Z,52.3
2017-07-10T01:37:27.571Z,52.2
2017-07-10T01:38:28.998Z,52.1
2017-07-10T01:39:30.417Z,52.1
2017-07-10T01:40:31.838Z,52.4
2017-07-10T01:41:33.262Z,52.3
2017-07-10T01:42:34.686Z,51.9
2017-07-10T01:43:36.107Z,52.1
2017-07-10T01:44:37.531Z,52.2
2017-07-10T01:45:38.968Z,52.6
2017-07-10T01:46:40.392Z,52.2
2017-07-10T01:47:41.832Z,52.3
2017-07-10T01:48:43.249Z,52.3
2017-07-10T01:49:44.669Z,52.7
2017-07-10T01:50:46.092Z,52.5
2017-07-10T01:51:47.514Z,52.4
2017-07-10T01:52:48.938Z,52.3
2017-07-10T01:53:50.360Z,52.8
2017-07-10T01:54:51.794Z,52.4
2017-07-10T01:55:53.223Z,52.7
2017-07-10T01:56:54.648Z,53.2
2017-07-10T01:57:56.070Z,53.0
2017-07-10T01:58:57.493Z,53.6
2017-07-10T01:59:58.916Z,52.9
2017-07-10T02:01:00.338Z,53.0
2017-07-10T02:02:01.760Z,52.6
2017-07-10T02:03:03.187Z,53.1
2017-07-10T02:04:04.611Z,52.8
2017-07-10T02:05:06.034Z,53.0
2017-07-10T02:06:07.462Z,53.5
2017-07-10T02:07:08.888Z,54.1
2017-07-10T02:08:10.309Z,53.7
2017-07-10T02:09:11.736Z,53.0
2017-07-10T02:10:13.160Z,52.5
2017-07-10T02:11:14.586Z,54.2
2017-07-10T02:12:16.012Z,53.7
2017-07-10T02:13:17.429Z,54.4
2017-07-10T02:14:18.850Z,53.8
2017-07-10T02:15:20.277Z,53.8
2017-07-10T02:16:21.696Z,53.8
2017-07-10T02:17:23.123Z,53.7
2017-07-10T02:18:24.549Z,53.5
2017-07-10T02:19:25.973Z,54.1
2017-07-10T02:20:27.393Z,53.9
2017-07-10T02:21:28.816Z,54.2
2017-07-10T02:22:30.239Z,54.2
2017-07-10T02:23:31.662Z,54.0
2017-07-10T02:24:33.088Z,54.3
2017-07-10T02:25:34.509Z,54.3
2017-07-10T02:26:35.930Z,54.0
2017-07-10T02:27:37.353Z,54.1
2017-07-10T02:28:38.776Z,54.3
2017-07-10T02:29:40.196Z,54.1
2017-07-10T02:30:41.620Z,54.2
2017-07-10T02:31:43.045Z,54.5
2017-07-10T02:32:44.470Z,53.8
2017-07-10T02:33:45.893Z,53.9
2017-07-10T02:34:47.317Z,54.1
2017-07-10T02:35:48.740Z,54.4
2017-07-10T02:36:50.164Z,53.6
2017-07-10T02:37:51.584Z,53.7
2017-07-10T02:38:53.028Z,53.9
2017-07-10T02:39:54.451Z,53.9
2017-07-10T02:40:55.863Z,54.0
2017-07-10T02:41:57.292Z,53.8
2017-07-10T02:42:58.710Z,53.9
2017-07-10T02:44:00.130Z,54.4
2017-07-10T02:45:01.561Z,53.9
2017-07-10T02:46:02.984Z,54.4
2017-07-10T02:47:04.408Z,54.3
2017-07-10T02:48:05.845Z,53.9
2017-07-10T02:49:07.264Z,53.6
2017-07-10T02:50:08.689Z,54.2
2017-07-10T02:51:10.124Z,53.8
2017-07-10T02:52:11.546Z,54.0
2017-07-10T02:53:12.965Z,54.1
2017-07-10T02:54:14.396Z,54.2
2017-07-10T02:55:15.820Z,54.1
2017-07-10T02:56:17.244Z,54.1
2017-07-10T02:57:18.677Z,53.8
2017-07-10T02:58:20.095Z,54.1
2017-07-10T02:59:21.515Z,53.9
2017-07-10T03:00:22.940Z,54.3
2017-07-10T03:01:24.362Z,54.1
2017-07-10T03:02:25.787Z,54.2
2017-07-10T03:03:27.210Z,54.2
2017-07-10T03:04:28.631Z,54.3
2017-07-10T03:05:30.054Z,54.1
2017-07-10T03:06:31.479Z,53.9
2017-07-10T03:07:32.899Z,54.2
2017-07-10T03:08:34.312Z,54.1
2017-07-10T03:09:35.743Z,54.3
2017-07-10T03:10:37.168Z,54.0
2017-07-10T03:11:38.587Z,54.3
2017-07-10T03:12:40.012Z,54.4
2017-07-10T03:13:41.434Z,53.8
2017-07-10T03:14:42.857Z,54.4
2017-07-10T03:15:44.280Z,54.9
2017-07-10T03:16:45.705Z,54.7
2017-07-10T03:17:47.125Z,55.0
2017-07-10T03:18:48.547Z,54.1
2017-07-10T03:19:49.971Z,55.1
2017-07-10T03:20:51.396Z,55.1
2017-07-10T03:21:52.819Z,54.9
2017-07-10T03:22:54.243Z,54.4
2017-07-10T03:23:55.667Z,55.1
2017-07-10T03:24:57.094Z,54.6
2017-07-10T03:25:58.516Z,54.8
2017-07-10T03:26:59.941Z,54.0
2017-07-10T03:28:01.377Z,55.2
2017-07-10T03:29:02.801Z,55.1
2017-07-10T03:30:04.223Z,55.0
2017-07-10T03:31:05.668Z,55.1
2017-07-10T03:32:07.089Z,55.2
2017-07-10T03:33:08.523Z,54.7
2017-07-10T03:34:09.936Z,55.2
2017-07-10T03:35:11.359Z,54.7
2017-07-10T03:36:12.790Z,55.4
2017-07-10T03:37:14.206Z,54.9
2017-07-10T03:38:15.628Z,54.8
2017-07-10T03:39:17.051Z,54.7
2017-07-10T03:40:18.475Z,54.6
2017-07-10T03:41:19.899Z,54.8
2017-07-10T03:42:21.349Z,54.6
2017-07-10T03:43:22.767Z,54.5
2017-07-10T03:44:24.191Z,54.7
2017-07-10T03:45:25.616Z,55.1
2017-07-10T03:46:27.039Z,54.6
2017-07-10T03:47:28.462Z,54.6
2017-07-10T03:48:29.885Z,55.1
2017-07-10T03:49:31.310Z,54.7
2017-07-10T03:50:32.735Z,54.9
2017-07-10T03:51:34.160Z,54.5
2017-07-10T03:52:35.585Z,55.1
2017-07-10T03:53:37.009Z,55.0
2017-07-10T03:54:38.435Z,55.0
2017-07-10T03:55:39.867Z,54.7
2017-07-10T03:56:41.283Z,54.7
2017-07-10T03:57:42.708Z,55.3
2017-07-10T03:58:44.129Z,55.8
2017-07-10T03:59:45.552Z,55.9
2017-07-10T04:00:46.978Z,55.5
2017-07-10T04:01:48.400Z,55.5
2017-07-10T04:02:49.826Z,55.1
2017-07-10T04:03:51.250Z,55.0
2017-07-10T04:04:52.677Z,55.1
2017-07-10T04:05:54.101Z,55.3
2017-07-10T04:06:55.526Z,55.9
2017-07-10T04:07:56.951Z,55.3
2017-07-10T04:08:58.372Z,54.9
2017-07-10T04:09:59.796Z,56.0
2017-07-10T04:11:01.221Z,56.1
2017-07-10T04:12:02.645Z,55.3
2017-07-10T04:13:04.066Z,55.9
2017-07-10T04:14:05.493Z,55.0
2017-07-10T04:15:06.920Z,54.9
2017-07-10T04:16:08.344Z,56.1
2017-07-10T04:17:09.767Z,55.6
2017-07-10T04:18:11.191Z,55.5
2017-07-10T04:19:12.618Z,55.8
2017-07-10T04:20:14.043Z,55.2
2017-07-10T04:21:15.477Z,55.3
2017-07-10T04:22:16.900Z,55.7
2017-07-10T04:23:18.328Z,55.3
2017-07-10T04:24:19.750Z,55.7
2017-07-10T04:25:21.174Z,55.8
2017-07-10T04:26:22.598Z,56.1
2017-07-10T04:27:24.025Z,56.0
2017-07-10T04:28:25.450Z,55.9
2017-07-10T04:29:26.879Z,55.8
2017-07-10T04:30:28.299Z,56.0
2017-07-10T04:31:29.722Z,56.0
2017-07-10T04:32:31.147Z,56.4
2017-07-10T04:33:32.570Z,56.4
2017-07-10T04:34:33.994Z,56.2
2017-07-10T04:35:35.421Z,56.8
2017-07-10T04:36:36.843Z,56.6
2017-07-10T04:37:38.263Z,56.8
2017-07-10T04:38:39.691Z,57.1
2017-07-10T04:39:41.111Z,57.2
2017-07-10T04:40:42.538Z,56.8
2017-07-10T04:41:43.963Z,56.8
2017-07-10T04:42:45.420Z,56.5
2017-07-10T04:43:46.847Z,56.6
2017-07-10T04:44:48.278Z,56.7
2017-07-10T04:45:49.698Z,56.8
2017-07-10T04:46:51.116Z,56.8
2017-07-10T04:47:52.544Z,56.6
2017-07-10T04:48:53.969Z,57.5
2017-07-10T04:49:55.398Z,57.0
2017-07-10T04:50:56.826Z,57.0
2017-07-10T04:51:58.249Z,56.8
2017-07-10T04:52:59.673Z,56.8
2017-07-10T04:54:01.099Z,56.5
2017-07-10T04:55:02.522Z,56.6
2017-07-10T04:56:03.949Z,56.8
2017-07-10T04:57:05.374Z,56.7
2017-07-10T04:58:06.798Z,56.7
2017-07-10T04:59:08.223Z,56.8
2017-07-10T05:00:09.665Z,56.6
2017-07-10T05:01:11.102Z,56.8
2017-07-10T05:02:12.524Z,56.5
2017-07-10T05:03:13.949Z,56.7
2017-07-10T05:04:15.373Z,56.7
2017-07-10T05:05:16.801Z,56.8
2017-07-10T05:06:18.227Z,56.7
2017-07-10T05:07:19.650Z,57.4
2017-07-10T05:08:21.076Z,57.3
2017-07-10T05:09:22.506Z,57.0
2017-07-10T05:10:23.927Z,57.1
2017-07-10T05:11:25.352Z,57.5
2017-07-10T05:12:26.778Z,57.3
2017-07-10T05:13:28.202Z,57.3
2017-07-10T05:14:29.633Z,57.3
2017-07-10T05:15:31.054Z,57.1
2017-07-10T05:16:32.477Z,56.8
2017-07-10T05:17:33.910Z,56.9
2017-07-10T05:18:35.334Z,57.2
2017-07-10T05:19:36.759Z,57.3
2017-07-10T05:20:38.185Z,57.2
2017-07-10T05:21:39.610Z,57.5
2017-07-10T05:22:41.037Z,57.8
2017-07-10T05:23:42.461Z,57.1
2017-07-10T05:24:43.883Z,57.5
2017-07-10T05:25:45.307Z,57.2
2017-07-10T05:26:46.755Z,57.7
2017-07-10T05:27:48.176Z,57.6
2017-07-10T05:28:49.598Z,57.3
2017-07-10T05:29:51.033Z,57.1
2017-07-10T05:30:52.464Z,57.2
2017-07-10T05:31:53.873Z,57.3
2017-07-10T05:32:55.308Z,57.3
2017-07-10T05:33:56.736Z,57.3
2017-07-10T05:34:58.162Z,57.5
2017-07-10T05:35:59.586Z,57.4
2017-07-10T05:37:01.014Z,57.4
2017-07-10T05:38:02.439Z,57.8
2017-07-10T05:39:03.861Z,57.8
2017-07-10T05:40:05.287Z,57.7
2017-07-10T05:41:06.723Z,57.8
2017-07-10T05:42:08.148Z,58.4
2017-07-10T05:43:09.574Z,58.5
2017-07-10T05:44:11.000Z,57.8
2017-07-10T05:45:12.432Z,58.2
2017-07-10T05:46:13.886Z,57.6
2017-07-10T05:47:15.309Z,57.5
2017-07-10T05:48:16.737Z,57.5
2017-07-10T05:49:18.159Z,57.4
2017-07-10T05:50:19.584Z,57.2
2017-07-10T05:51:21.024Z,57.4
2017-07-10T05:52:22.449Z,57.3
2017-07-10T05:53:23.871Z,57.3
2017-07-10T05:54:25.298Z,57.2
2017-07-10T05:55:26.722Z,57.1
2017-07-10T05:56:28.146Z,57.6
2017-07-10T05:57:29.571Z,57.4
2017-07-10T05:58:31.000Z,57.4
2017-07-10T05:59:32.413Z,57.9
2017-07-10T06:00:33.849Z,57.8
2017-07-10T06:01:35.276Z,57.7
2017-07-10T06:02:36.708Z,58.3
2017-07-10T06:03:38.135Z,58.1
2017-07-10T06:04:39.576Z,58.7
2017-07-10T06:05:41.007Z,58.5
2017-07-10T06:06:42.432Z,58.3
2017-07-10T06:07:43.856Z,58.5
2017-07-10T06:08:45.284Z,58.5
2017-07-10T06:09:46.706Z,58.5
2017-07-10T06:10:48.130Z,58.4
2017-07-10T06:11:49.556Z,58.4
2017-07-10T06:12:50.983Z,58.6
2017-07-10T06:13:52.410Z,58.7
2017-07-10T06:14:53.840Z,58.7
2017-07-10T06:15:55.265Z,58.7
2017-07-10T06:16:56.715Z,58.7
2017-07-10T06:17:58.156Z,58.8
2017-07-10T06:18:59.577Z,59.1
2017-07-10T06:20:01.005Z,58.9
2017-07-10T06:21:02.429Z,58.9
2017-07-10T06:22:03.851Z,58.9
2017-07-10T06:23:05.275Z,58.7
2017-07-10T06:24:06.703Z,58.9
2017-07-10T06:25:08.131Z,58.9
2017-07-10T06:26:09.562Z,58.9
2017-07-10T06:27:11.008Z,59.1
2017-07-10T06:28:12.434Z,58.9
2017-07-10T06:29:13.861Z,59.0
2017-07-10T06:30:15.286Z,58.7
2017-07-10T06:31:16.720Z,59.2
2017-07-10T06:32:18.145Z,58.8
2017-07-10T06:33:19.569Z,58.8
2017-07-10T06:34:21.000Z,58.8
2017-07-10T06:35:22.420Z,58.6
2017-07-10T06:36:23.846Z,58.5
2017-07-10T06:37:25.274Z,58.6
2017-07-10T06:38:26.704Z,58.7
2017-07-10T06:39:28.127Z,58.7
2017-07-10T06:40:29.554Z,58.7
2017-07-10T06:41:30.981Z,58.7
2017-07-10T06:42:32.406Z,58.3
2017-07-10T06:43:33.833Z,58.6
2017-07-10T06:44:35.257Z,58.6
2017-07-10T06:45:36.687Z,58.3
2017-07-10T06:46:38.107Z,58.3
2017-07-10T06:47:39.534Z,58.7
2017-07-10T06:48:40.958Z,58.5
2017-07-10T06:49:42.386Z,59.0
2017-07-10T06:50:43.829Z,58.6
2017-07-10T06:51:45.255Z,58.6
2017-07-10T06:52:46.681Z,58.6
2017-07-10T06:53:48.105Z,58.6
2017-07-10T06:54:49.528Z,58.4
2017-07-10T06:55:50.953Z,58.5
2017-07-10T06:56:52.378Z,58.4
2017-07-10T06:57:53.806Z,58.3
2017-07-10T06:58:55.230Z,59.1
2017-07-10T06:59:56.655Z,59.0
2017-07-10T07:00:58.090Z,58.6
2017-07-10T07:01:59.508Z,58.6
2017-07-10T07:03:00.932Z,58.9
2017-07-10T07:04:02.355Z,58.4
2017-07-10T07:05:03.782Z,58.3
2017-07-10T07:06:05.209Z,58.4
2017-07-10T07:07:06.634Z,58.4
2017-07-10T07:08:08.058Z,58.9
2017-07-10T07:09:09.482Z,58.3
2017-07-10T07:10:10.906Z,58.5
2017-07-10T07:11:12.338Z,58.5
2017-07-10T07:12:13.762Z,58.6
2017-07-10T07:13:15.189Z,58.8
2017-07-10T07:14:16.615Z,58.5
2017-07-10T07:15:18.039Z,58.5
2017-07-10T07:16:19.465Z,58.7
2017-07-10T07:17:20.888Z,58.7
2017-07-10T07:18:22.310Z,58.4
2017-07-10T07:19:23.735Z,58.3
2017-07-10T07:20:25.159Z,58.5
2017-07-10T07:21:26.587Z,58.6
2017-07-10T07:22:28.014Z,58.7
2017-07-10T07:23:29.440Z,58.5
2017-07-10T07:24:30.867Z,58.4
2017-07-10T07:25:32.297Z,58.2
2017-07-10T07:26:33.719Z,58.5
2017-07-10T07:27:35.141Z,58.4
2017-07-10T07:28:36.567Z,58.8
2017-07-10T07:29:37.991Z,58.6
2017-07-10T07:30:39.421Z,58.7
2017-07-10T07:31:40.848Z,58.8
2017-07-10T07:32:42.273Z,58.3
2017-07-10T07:33:43.700Z,58.4
2017-07-10T07:34:45.126Z,58.3
2017-07-10T07:35:46.552Z,58.3
2017-07-10T07:36:47.981Z,58.8
2017-07-10T07:37:49.401Z,58.4
2017-07-10T07:38:50.823Z,58.6
2017-07-10T07:39:52.252Z,58.7
2017-07-10T07:40:53.682Z,58.4
2017-07-10T07:41:55.107Z,58.3
2017-07-10T07:42:56.532Z,58.9
2017-07-10T07:43:57.958Z,58.9
2017-07-10T07:44:59.383Z,58.6
2017-07-10T07:46:00.808Z,58.6
2017-07-10T07:47:02.233Z,58.6
2017-07-10T07:48:03.658Z,58.5
2017-07-10T07:49:05.085Z,58.1
2017-07-10T07:50:06.510Z,57.9
2017-07-10T07:51:07.938Z,58.4
2017-07-10T07:52:09.363Z,58.5
2017-07-10T07:53:10.802Z,58.4
2017-07-10T07:54:12.226Z,58.0
2017-07-10T07:55:13.652Z,58.1
2017-07-10T07:56:15.083Z,58.1
2017-07-10T07:57:16.509Z,58.1
2017-07-10T07:58:17.937Z,58.1
2017-07-10T07:59:19.361Z,58.5
2017-07-10T08:00:20.785Z,58.9
2017-07-10T08:01:22.215Z,58.8
2017-07-10T08:02:23.666Z,58.2
2017-07-10T08:03:25.089Z,58.6
2017-07-10T08:04:26.568Z,58.6
2017-07-10T08:05:27.982Z,58.4
2017-07-10T08:06:29.415Z,57.8
2017-07-10T08:07:30.865Z,58.1
2017-07-10T08:08:32.324Z,57.9
2017-07-10T08:09:33.800Z,58.4
2017-07-10T08:10:35.386Z,58.6
2017-07-10T08:11:36.784Z,58.5
2017-07-10T08:12:38.214Z,57.9
2017-07-10T08:13:39.857Z,58.7
2017-07-10T08:14:41.281Z,57.8
2017-07-10T08:15:42.717Z,58.1
2017-07-10T08:16:44.148Z,57.7
2017-07-10T08:17:45.572Z,57.6
2017-07-10T08:18:47.001Z,57.9
2017-07-10T08:19:48.427Z,57.4
2017-07-10T08:20:49.897Z,57.6
2017-07-10T08:21:51.325Z,57.2
2017-07-10T08:22:52.767Z,57.2
2017-07-10T08:23:54.192Z,57.2
2017-07-10T08:24:55.620Z,56.8
2017-07-10T08:25:57.082Z,57.4
2017-07-10T08:26:58.528Z,56.8
2017-07-10T08:27:59.958Z,56.9
2017-07-10T08:29:01.384Z,56.5
2017-07-10T08:30:02.842Z,56.6
2017-07-10T08:31:04.274Z,56.8
2017-07-10T08:32:05.702Z,56.7
2017-07-10T08:33:07.130Z,56.7
2017-07-10T08:34:08.556Z,56.5
2017-07-10T08:35:09.979Z,56.2
2017-07-10T08:36:11.427Z,56.3
2017-07-10T08:37:12.858Z,56.2
2017-07-10T08:38:14.287Z,56.2
2017-07-10T08:39:15.717Z,55.9
2017-07-10T08:40:17.135Z,56.3
2017-07-10T08:41:18.583Z,56.2
2017-07-10T08:42:20.009Z,56.1
2017-07-10T08:43:21.462Z,55.9
2017-07-10T08:44:22.887Z,56.0
2017-07-10T08:45:24.310Z,56.1
2017-07-10T08:46:25.737Z,56.1
2017-07-10T08:47:27.161Z,56.4
2017-07-10T08:48:28.599Z,56.3
2017-07-10T08:49:30.036Z,55.9
2017-07-10T08:50:31.464Z,55.6
2017-07-10T08:51:32.899Z,56.4
2017-07-10T08:52:34.328Z,56.0
2017-07-10T08:53:35.766Z,56.3
2017-07-10T08:54:37.192Z,56.0
2017-07-10T08:55:38.619Z,56.2
2017-07-10T08:56:40.045Z,55.9
2017-07-10T08:57:41.474Z,56.3
2017-07-10T08:58:42.900Z,55.8
2017-07-10T08:59:44.326Z,55.7
2017-07-10T09:00:45.758Z,56.0
2017-07-10T09:01:47.181Z,55.8
2017-07-10T09:02:48.608Z,55.9
2017-07-10T09:03:50.041Z,55.6
2017-07-10T09:04:51.473Z,55.8
2017-07-10T09:05:52.902Z,55.9
2017-07-10T09:06:54.330Z,55.3
2017-07-10T09:07:55.761Z,55.2
2017-07-10T09:08:57.185Z,55.1
2017-07-10T09:09:58.612Z,55.8
2017-07-10T09:11:00.038Z,55.4
2017-07-10T09:12:01.466Z,55.4
2017-07-10T09:13:02.893Z,56.1
2017-07-10T09:14:04.322Z,55.8
2017-07-10T09:15:05.751Z,55.9
2017-07-10T09:16:07.182Z,55.5
2017-07-10T09:17:08.606Z,55.6
2017-07-10T09:18:10.030Z,55.9
2017-07-10T09:19:11.461Z,55.9
2017-07-10T09:20:12.883Z,55.3
2017-07-10T09:21:14.313Z,55.5
2017-07-10T09:22:15.741Z,55.2
2017-07-10T09:23:17.164Z,55.3
2017-07-10T09:24:18.596Z,55.0
2017-07-10T09:25:20.022Z,54.6
2017-07-10T09:26:21.448Z,54.7
2017-07-10T09:27:22.877Z,55.0
2017-07-10T09:28:24.304Z,54.9
2017-07-10T09:29:25.736Z,55.1
2017-07-10T09:30:27.170Z,54.9
2017-07-10T09:31:28.665Z,55.0
2017-07-10T09:32:30.126Z,55.0
2017-07-10T09:33:31.560Z,54.9
2017-07-10T09:34:32.989Z,55.0
2017-07-10T09:35:34.423Z,55.1
2017-07-10T09:36:35.837Z,55.1
2017-07-10T09:37:37.299Z,54.9
2017-07-10T09:38:38.727Z,55.1
2017-07-10T09:39:40.158Z,55.1
2017-07-10T09:40:41.586Z,55.0
2017-07-10T09:41:43.017Z,54.8
2017-07-10T09:42:44.446Z,54.8
2017-07-10T09:43:45.888Z,55.1
2017-07-10T09:44:47.315Z,54.9
2017-07-10T09:45:48.749Z,54.9
2017-07-10T09:46:50.177Z,55.5
2017-07-10T09:47:51.600Z,55.3
2017-07-10T09:48:53.038Z,55.4
2017-07-10T09:49:54.481Z,55.4
2017-07-10T09:50:55.905Z,55.0
2017-07-10T09:51:57.335Z,55.1
2017-07-10T09:52:58.765Z,55.4
2017-07-10T09:54:00.190Z,54.9
2017-07-10T09:55:01.619Z,55.1
2017-07-10T09:56:03.057Z,55.2
2017-07-10T09:57:04.489Z,55.0
2017-07-10T09:58:05.920Z,55.1
2017-07-10T09:59:07.350Z,54.5
2017-07-10T10:00:08.781Z,54.5
2017-07-10T10:01:10.208Z,54.8
2017-07-10T10:02:11.643Z,54.9
2017-07-10T10:03:13.073Z,54.9
2017-07-10T10:04:14.500Z,55.0
2017-07-10T10:05:15.926Z,55.0
2017-07-10T10:06:17.357Z,55.0
2017-07-10T10:07:18.788Z,54.8
2017-07-10T10:08:20.218Z,54.8
2017-07-10T10:09:21.643Z,54.6
2017-07-10T10:10:23.071Z,54.9
2017-07-10T10:11:24.501Z,54.9
2017-07-10T10:12:25.945Z,54.7
2017-07-10T10:13:27.364Z,54.7
2017-07-10T10:14:28.792Z,54.8
2017-07-10T10:15:30.230Z,54.7
2017-07-10T10:16:31.656Z,54.6
2017-07-10T10:17:33.084Z,54.5
2017-07-10T10:18:34.515Z,54.7
2017-07-10T10:19:35.939Z,54.4
2017-07-10T10:20:37.368Z,54.5
2017-07-10T10:21:38.798Z,54.6
2017-07-10T10:22:40.223Z,55.0
2017-07-10T10:23:41.652Z,54.5
2017-07-10T10:24:43.081Z,54.9
2017-07-10T10:25:44.509Z,54.8
2017-07-10T10:26:45.936Z,55.0
2017-07-10T10:27:47.367Z,54.9
2017-07-10T10:28:48.795Z,54.9
2017-07-10T10:29:50.226Z,54.4
2017-07-10T10:30:51.657Z,54.1
2017-07-10T10:31:53.080Z,54.1
2017-07-10T10:32:54.510Z,54.3
2017-07-10T10:33:55.940Z,54.3
2017-07-10T10:34:57.371Z,53.8
2017-07-10T10:35:58.800Z,54.2
2017-07-10T10:37:00.229Z,54.2
2017-07-10T10:38:01.661Z,54.4
2017-07-10T10:39:03.090Z,54.4
2017-07-10T10:40:04.521Z,53.6
2017-07-10T10:41:05.949Z,54.0
2017-07-10T10:42:07.373Z,54.2
2017-07-10T10:43:08.810Z,53.8
2017-07-10T10:44:10.239Z,53.3
2017-07-10T10:45:11.699Z,53.5
2017-07-10T10:46:13.124Z,53.4
2017-07-10T10:47:14.556Z,52.9
2017-07-10T10:48:15.994Z,52.2
2017-07-10T10:49:17.411Z,52.2
2017-07-10T10:50:18.839Z,52.5
2017-07-10T10:51:20.269Z,52.8
2017-07-10T10:52:21.698Z,52.8
2017-07-10T10:53:23.126Z,52.5
2017-07-10T10:54:24.555Z,52.7
2017-07-10T10:55:25.980Z,52.0
2017-07-10T10:56:27.421Z,52.2
2017-07-10T10:57:28.850Z,52.4
2017-07-10T10:58:30.281Z,52.7
2017-07-10T10:59:31.718Z,53.2
2017-07-10T11:00:33.145Z,52.7
2017-07-10T11:01:34.571Z,52.7
2017-07-10T11:02:36.001Z,53.1
2017-07-10T11:03:37.431Z,52.8
2017-07-10T11:04:38.861Z,52.6
2017-07-10T11:05:40.289Z,52.9
2017-07-10T11:06:41.718Z,52.8
2017-07-10T11:07:43.148Z,52.7
2017-07-10T11:08:44.574Z,52.5
2017-07-10T11:09:46.003Z,52.8
2017-07-10T11:10:47.433Z,52.7
2017-07-10T11:11:48.863Z,52.2
2017-07-10T11:12:50.293Z,52.3
2017-07-10T11:13:51.716Z,51.9
2017-07-10T11:14:53.145Z,52.2
2017-07-10T11:15:54.573Z,52.2
2017-07-10T11:16:56.003Z,52.0
2017-07-10T11:17:57.432Z,52.3
2017-07-10T11:18:58.865Z,51.9
2017-07-10T11:20:00.288Z,51.9
2017-07-10T11:21:01.725Z,51.9
2017-07-10T11:22:03.151Z,51.3
2017-07-10T11:23:04.587Z,51.9
2017-07-10T11:24:06.018Z,52.1
2017-07-10T11:25:07.453Z,52.0
2017-07-10T11:26:08.880Z,51.7
2017-07-10T11:27:10.833Z,51.2
2017-07-10T11:28:12.263Z,51.5
2017-07-10T11:29:13.692Z,52.3
2017-07-10T11:30:15.120Z,51.4
2017-07-10T11:31:16.551Z,51.8
2017-07-10T11:32:17.978Z,51.7
2017-07-10T11:33:19.408Z,51.4
2017-07-10T11:34:20.838Z,51.7
2017-07-10T11:35:22.267Z,50.8
2017-07-10T11:36:23.701Z,50.8
2017-07-10T11:37:25.128Z,52.0
2017-07-10T11:38:26.555Z,51.0
2017-07-10T11:39:27.988Z,51.1
2017-07-10T11:40:29.418Z,51.4
2017-07-10T11:41:30.847Z,50.5
2017-07-10T11:42:32.277Z,50.5
2017-07-10T11:43:33.705Z,50.4
2017-07-10T11:44:35.134Z,50.6
2017-07-10T11:45:36.593Z,50.4
2017-07-10T11:46:38.022Z,49.9
2017-07-10T11:47:39.451Z,49.9
2017-07-10T11:48:40.882Z,49.4
2017-07-10T11:49:42.312Z,49.7
2017-07-10T11:50:43.740Z,49.6
2017-07-10T11:51:45.168Z,49.6
2017-07-10T11:52:46.599Z,49.6
2017-07-10T11:53:48.026Z,49.3
2017-07-10T11:54:49.457Z,49.6
2017-07-10T11:55:50.886Z,49.6
2017-07-10T11:56:52.316Z,49.6
2017-07-10T11:57:53.759Z,49.3
2017-07-10T11:58:55.180Z,49.2
2017-07-10T11:59:56.609Z,49.5
2017-07-10T12:00:58.039Z,49.0
2017-07-10T12:01:59.471Z,48.7
2017-07-10T12:03:00.900Z,48.7
2017-07-10T12:04:02.328Z,48.5
2017-07-10T12:05:03.762Z,48.7
2017-07-10T12:06:05.194Z,48.1
2017-07-10T12:07:06.626Z,47.9
2017-07-10T12:08:08.054Z,48.0
2017-07-10T12:09:09.485Z,48.1
2017-07-10T12:10:10.912Z,47.4
2017-07-10T12:11:12.353Z,47.5
2017-07-10T12:12:13.791Z,47.6
2017-07-10T12:13:15.216Z,48.0
2017-07-10T12:14:16.644Z,48.2
2017-07-10T12:15:18.071Z,48.4
2017-07-10T12:16:19.502Z,48.3
2017-07-10T12:17:20.931Z,48.9
2017-07-10T12:18:22.367Z,48.9
2017-07-10T12:19:23.793Z,48.3
2017-07-10T12:20:25.225Z,48.0
2017-07-10T12:21:26.653Z,48.1
2017-07-10T12:22:28.077Z,48.1
2017-07-10T12:23:29.504Z,48.4
2017-07-10T12:24:30.934Z,48.5
2017-07-10T12:25:32.361Z,48.7
2017-07-10T12:26:33.788Z,49.7
2017-07-10T12:27:35.239Z,49.2
2017-07-10T12:28:36.668Z,49.4
2017-07-10T12:29:38.095Z,49.5
2017-07-10T12:30:39.529Z,48.6
2017-07-10T12:31:40.960Z,48.6
2017-07-10T12:32:42.389Z,48.7
2017-07-10T12:33:43.818Z,48.8
2017-07-10T12:34:45.246Z,48.9
2017-07-10T12:35:46.675Z,48.6
2017-07-10T12:36:48.105Z,48.7
2017-07-10T12:37:49.535Z,48.5
2017-07-10T12:38:50.963Z,48.8
2017-07-10T12:39:52.401Z,48.5
2017-07-10T12:40:53.823Z,48.4
2017-07-10T12:41:55.250Z,48.8
2017-07-10T12:42:56.677Z,48.4
2017-07-10T12:43:58.110Z,49.0
2017-07-10T12:44:59.534Z,48.9
2017-07-10T12:46:00.964Z,48.5
2017-07-10T12:47:02.393Z,48.4
2017-07-10T12:48:03.821Z,48.4
2017-07-10T12:49:05.270Z,48.3
2017-07-10T12:50:06.698Z,48.4
2017-07-10T12:51:08.128Z,48.7
2017-07-10T12:52:09.557Z,48.5
2017-07-10T12:53:10.995Z,48.2
2017-07-10T12:54:12.427Z,48.2
2017-07-10T12:55:13.867Z,48.0
2017-07-10T12:56:15.296Z,47.4
2017-07-10T12:57:16.723Z,47.0
2017-07-10T12:58:18.154Z,46.6
2017-07-10T12:59:19.585Z,46.2
2017-07-10T13:00:21.018Z,46.6
2017-07-10T13:01:22.464Z,46.4
2017-07-10T13:02:23.894Z,46.9
2017-07-10T13:03:25.326Z,46.7
2017-07-10T13:04:26.758Z,47.1
2017-07-10T13:05:28.186Z,47.6
2017-07-10T13:06:29.620Z,47.7
2017-07-10T13:07:31.060Z,48.1
2017-07-10T13:08:32.488Z,48.1
2017-07-10T13:09:33.918Z,48.2
2017-07-10T13:10:35.347Z,48.1
2017-07-10T13:11:36.774Z,48.0
2017-07-10T13:12:38.201Z,47.8
2017-07-10T13:13:39.629Z,47.8
2017-07-10T13:14:41.059Z,47.7
2017-07-10T13:15:42.487Z,47.9
2017-07-10T13:16:43.917Z,48.0
2017-07-10T13:17:45.344Z,47.6
2017-07-10T13:18:46.774Z,47.5
2017-07-10T13:19:48.202Z,47.6
2017-07-10T13:20:49.635Z,47.7
2017-07-10T13:21:51.060Z,47.5
2017-07-10T13:22:52.490Z,47.6
2017-07-10T13:23:53.924Z,47.0
2017-07-10T13:24:55.352Z,47.0
2017-07-10T13:25:56.782Z,47.0
2017-07-10T13:26:58.211Z,46.7
2017-07-10T13:27:59.640Z,46.4
2017-07-10T13:29:01.069Z,45.6
2017-07-10T13:30:02.505Z,46.1
2017-07-10T13:31:03.934Z,46.5
2017-07-10T13:32:05.362Z,46.6
2017-07-10T13:33:06.791Z,46.6
2017-07-10T13:34:08.216Z,46.6
2017-07-10T13:35:09.644Z,46.3
2017-07-10T13:36:11.069Z,46.4
2017-07-10T13:37:12.502Z,46.3
2017-07-10T13:38:13.930Z,45.4